Time;durP1;ratioP1;P1;durP2;ratioP2;P2;SDS_P1;SDS_P2;PMS_P1;PMS_P2;Temp;Humidity;BMP_temperature;BMP_pressure;BME280_temperature;BME280_humidity;BME280_pressure;Samples;Min_cycle;Max_cycle;Signal;HPM_P1;HPM_P2
2022/04/07 00:00:50;;;;;;;5.73;3.40;;;11.40;1.00;11.80;98763.00;;;;5085929;28;20968;-77
2022/04/07 00:03:19;;;;;;;5.00;3.93;;;11.30;1.00;11.70;98768.00;;;;5084790;28;20519;-77
2022/04/07 00:05:48;;;;;;;4.63;3.70;;;11.30;1.00;11.60;98752.00;;;;5093675;28;20453;-78
2022/04/07 00:08:16;;;;;;;5.00;3.57;;;11.30;1.00;11.70;98760.00;;;;5095516;28;20474;-77
2022/04/07 00:10:46;;;;;;;4.50;3.70;;;11.20;1.00;11.70;98766.00;;;;5091543;28;20966;-78
2022/04/07 00:13:14;;;;;;;4.80;3.33;;;11.30;1.00;11.70;98762.00;;;;5087011;28;20473;-77
2022/04/07 00:15:44;;;;;;;5.43;3.43;;;11.30;1.00;11.70;98732.00;;;;5080823;28;20450;-77
2022/04/07 00:18:13;;;;;;;5.30;3.93;;;11.30;1.00;11.60;98744.00;;;;5064294;28;21332;-78
2022/04/07 00:20:43;;;;;;;5.13;4.13;;;11.30;1.00;11.60;98727.00;;;;5082144;28;20465;-77
2022/04/07 00:23:11;;;;;;;8.53;3.90;;;11.10;1.00;11.50;98718.00;;;;5083055;28;20648;-77
2022/04/07 00:25:40;;;;;;;6.40;3.93;;;11.00;1.00;11.40;98723.00;;;;5091922;28;20452;-77
2022/04/07 00:28:08;;;;;;;7.27;3.97;;;11.00;1.00;11.40;98727.00;;;;5109428;27;20481;-77
2022/04/07 00:30:37;;;;;;;4.43;3.77;;;10.90;1.00;11.50;98722.00;;;;5093604;28;20445;-78
2022/04/07 00:33:07;;;;;;;5.43;3.80;;;11.00;1.00;11.60;98716.00;;;;5094460;28;20472;-77
2022/04/07 00:35:36;;;;;;;4.50;3.73;;;11.10;1.00;11.60;98720.00;;;;5086183;28;20804;-77
2022/04/07 00:38:05;;;;;;;5.70;3.00;;;11.20;1.00;11.70;98707.00;;;;5091587;28;20477;-77
2022/04/07 00:40:33;;;;;;;8.80;4.30;;;11.30;1.00;11.70;98697.00;;;;5087880;28;20454;-77
2022/04/07 00:43:01;;;;;;;6.93;3.90;;;11.30;1.00;11.70;98707.00;;;;5103960;27;20482;-78
2022/04/07 00:45:30;;;;;;;4.53;3.87;;;11.30;1.00;11.70;98687.00;;;;5089657;28;20517;-76
2022/04/07 00:47:59;;;;;;;6.07;4.33;;;11.20;1.00;11.60;98680.00;;;;5100340;27;20533;-76
2022/04/07 00:50:29;;;;;;;5.83;3.77;;;11.30;1.00;11.50;98674.00;;;;5098281;28;20958;-78
2022/04/07 00:53:00;;;;;;;5.33;4.33;;;11.10;1.00;11.40;98673.00;;;;5096168;28;20841;-77
2022/04/07 00:55:29;;;;;;;6.23;4.30;;;11.00;1.00;11.40;98667.00;;;;5094797;28;20474;-77
2022/04/07 00:57:57;;;;;;;5.43;4.10;;;10.90;1.00;11.40;98683.00;;;;5098683;28;20462;-77
2022/04/07 01:00:26;;;;;;;5.27;4.77;;;10.90;1.00;11.30;98663.00;;;;5090912;28;20476;-78
2022/04/07 01:02:54;;;;;;;5.70;4.50;;;10.90;1.00;11.30;98673.00;;;;5091282;28;20445;-76
2022/04/07 01:05:23;;;;;;;7.60;4.07;;;10.80;1.00;11.30;98673.00;;;;5094309;28;20457;-77
2022/04/07 01:07:53;;;;;;;5.97;3.40;;;10.80;1.00;11.20;98668.00;;;;5098030;28;20527;-77
2022/04/07 01:10:23;;;;;;;4.20;3.80;;;10.80;1.00;11.20;98667.00;;;;5109959;28;20509;-75
2022/04/07 01:12:51;;;;;;;5.97;4.20;;;10.70;1.00;11.20;98656.00;;;;5110875;28;20454;-76
2022/04/07 01:15:20;;;;;;;4.73;4.20;;;10.70;1.00;11.10;98656.00;;;;5099779;28;21278;-76
2022/04/07 01:17:48;;;;;;;4.70;3.97;;;10.80;1.00;11.10;98646.00;;;;5097229;27;21232;-77
2022/04/07 01:20:16;;;;;;;5.60;4.10;;;10.70;1.00;11.20;98653.00;;;;5096446;28;20457;-77
2022/04/07 01:22:47;;;;;;;4.80;3.50;;;10.80;1.00;11.20;98639.00;;;;5096073;28;20450;-77
2022/04/07 01:25:16;;;;;;;4.10;3.23;;;10.90;1.00;11.30;98636.00;;;;5092741;28;20454;-78
2022/04/07 01:27:48;;;;;;;5.17;4.00;;;10.90;1.00;11.40;98656.00;;;;5095024;28;20470;-78
2022/04/07 01:30:17;;;;;;;4.13;3.33;;;11.00;1.00;11.40;98648.00;;;;5088978;28;20482;-76
2022/04/07 01:32:51;;;;;;;4.23;3.80;;;11.00;1.00;11.40;98642.00;;;;5087187;28;20463;-76
2022/04/07 01:35:21;;;;;;;4.27;3.53;;;11.00;1.00;11.40;98641.00;;;;5092033;28;20462;-77
2022/04/07 01:37:52;;;;;;;11.03;4.53;;;11.00;1.00;11.40;98650.00;;;;5098506;28;20483;-77
2022/04/07 01:40:26;;;;;;;4.70;3.80;;;11.00;1.00;11.40;98623.00;;;;5098387;28;20465;-77
2022/04/07 01:42:55;;;;;;;4.00;3.00;;;11.00;1.00;11.40;98612.00;;;;5086378;28;20446;-77
2022/04/07 01:45:24;;;;;;;4.90;3.20;;;11.00;1.00;11.40;98631.00;;;;5085948;28;21025;-77
2022/04/07 01:47:55;;;;;;;6.40;4.10;;;11.00;1.00;11.40;98604.00;;;;5086880;28;20482;-77
2022/04/07 01:50:26;;;;;;;5.33;3.17;;;11.00;1.00;11.40;98619.00;;;;5091388;28;20542;-77
2022/04/07 01:52:55;;;;;;;5.00;3.53;;;11.00;1.00;11.40;98629.00;;;;5088046;28;20485;-77
2022/04/07 01:55:26;;;;;;;6.23;3.80;;;11.10;1.00;11.40;98613.00;;;;5088625;28;20891;-78
2022/04/07 01:57:55;;;;;;;4.50;3.43;;;11.00;1.00;11.40;98622.00;;;;5084602;28;20473;-77
2022/04/07 02:00:23;;;;;;;3.97;3.33;;;11.10;1.00;11.40;98600.00;;;;5087659;28;20450;-78
2022/04/07 02:02:52;;;;;;;4.67;3.20;;;11.00;1.00;11.40;98604.00;;;;5090747;28;20898;-77
2022/04/07 02:05:20;;;;;;;4.40;2.73;;;11.10;1.00;11.40;98599.00;;;;5095705;28;20457;-77
2022/04/07 02:07:48;;;;;;;3.30;3.00;;;11.00;1.00;11.40;98599.00;;;;5095599;28;20473;-77
2022/04/07 02:10:18;;;;;;;4.10;3.10;;;11.00;1.00;11.40;98593.00;;;;5095657;28;20469;-77
2022/04/07 02:12:49;;;;;;;3.77;3.40;;;11.10;1.00;11.40;98589.00;;;;5099338;28;20458;-77
2022/04/07 02:15:17;;;;;;;4.60;3.27;;;11.10;1.00;11.50;98593.00;;;;5097978;28;20465;-77
2022/04/07 02:17:45;;;;;;;3.87;2.57;;;11.10;1.00;11.50;98596.00;;;;5098968;28;20523;-77
2022/04/07 02:20:14;;;;;;;3.30;2.60;;;11.10;1.00;11.40;98581.00;;;;5096081;28;20557;-77
2022/04/07 02:22:42;;;;;;;3.90;3.27;;;11.10;1.00;11.30;98581.00;;;;5095133;28;20454;-78
2022/04/07 02:25:10;;;;;;;4.53;3.20;;;11.00;1.00;11.20;98589.00;;;;5098361;28;20446;-78
2022/04/07 02:27:42;;;;;;;3.90;3.50;;;11.00;1.00;11.00;98568.00;;;;5104540;28;20556;-78
2022/04/07 02:30:14;;;;;;;5.77;3.47;;;10.70;1.00;10.90;98579.00;;;;5098930;28;20445;-78
2022/04/07 02:32:43;;;;;;;3.53;2.80;;;10.60;1.00;10.80;98567.00;;;;5101202;28;20461;-78
2022/04/07 02:35:13;;;;;;;3.77;3.37;;;10.50;1.00;10.80;98559.00;;;;5097393;28;20480;-77
2022/04/07 02:37:42;;;;;;;3.43;2.90;;;10.50;1.00;10.80;98577.00;;;;5095866;28;20485;-77
2022/04/07 02:40:13;;;;;;;3.70;3.10;;;10.60;1.00;10.80;98567.00;;;;5098022;28;20540;-77
2022/04/07 02:42:41;;;;;;;4.50;2.93;;;10.40;1.00;10.80;98562.00;;;;5097448;28;20509;-78
2022/04/07 02:45:11;;;;;;;4.00;3.40;;;10.50;1.00;10.80;98552.00;;;;5099146;28;20457;-78
2022/04/07 02:47:39;;;;;;;5.87;4.13;;;10.40;1.00;10.80;98556.00;;;;5104803;28;20469;-77
2022/04/07 02:50:08;;;;;;;4.90;4.40;;;10.40;1.00;10.70;98540.00;;;;5108740;28;20453;-77
2022/04/07 02:52:37;;;;;;;5.10;4.33;;;10.30;1.00;10.70;98534.00;;;;5101264;28;20453;-78
2022/04/07 02:55:08;;;;;;;4.90;4.10;;;10.30;1.00;10.70;98518.00;;;;5100961;28;20473;-77
2022/04/07 02:57:37;;;;;;;4.80;3.80;;;10.30;1.00;10.60;98543.00;;;;5097919;28;20584;-77
2022/04/07 03:00:07;;;;;;;4.93;3.70;;;10.30;1.00;10.60;98525.00;;;;5099845;28;20453;-77
2022/04/07 03:02:36;;;;;;;4.87;3.20;;;10.20;1.00;10.60;98519.00;;;;5115743;28;20538;-77
2022/04/07 03:05:06;;;;;;;3.03;2.33;;;10.30;1.00;10.60;98522.00;;;;5110041;28;20446;-77
2022/04/07 03:07:36;;;;;;;4.00;2.90;;;10.20;1.00;10.60;98540.00;;;;5099405;28;20473;-76
2022/04/07 03:10:05;;;;;;;3.60;3.30;;;10.20;1.00;10.60;98515.00;;;;5093278;28;20992;-76
2022/04/07 03:12:33;;;;;;;3.10;2.80;;;10.10;1.00;10.50;98513.00;;;;5093947;28;20957;-76
2022/04/07 03:15:01;;;;;;;4.30;3.90;;;10.10;1.00;10.50;98504.00;;;;5092321;28;21430;-76
2022/04/07 03:17:30;;;;;;;3.43;3.13;;;10.10;1.00;10.40;98505.00;;;;5092939;28;20504;-76
2022/04/07 03:19:59;;;;;;;3.63;3.00;;;10.30;1.00;10.40;98512.00;;;;5094120;28;20450;-76
2022/04/07 03:22:27;;;;;;;3.00;2.40;;;10.10;1.00;10.50;98517.00;;;;5094903;28;21481;-76
2022/04/07 03:24:56;;;;;;;2.80;2.50;;;10.10;1.00;10.50;98513.00;;;;5094247;28;21083;-76
2022/04/07 03:27:24;;;;;;;2.70;2.30;;;10.10;1.00;10.50;98499.00;;;;5093579;28;20473;-76
2022/04/07 03:29:53;;;;;;;3.20;2.83;;;10.10;1.00;10.60;98503.00;;;;5092022;28;20450;-76
2022/04/07 03:32:21;;;;;;;3.97;2.10;;;10.20;1.00;10.60;98504.00;;;;5094097;28;20480;-76
2022/04/07 03:34:49;;;;;;;2.80;2.40;;;10.30;1.00;10.70;98499.00;;;;5091001;28;20442;-76
2022/04/07 03:37:20;;;;;;;3.30;2.40;;;10.30;1.00;10.70;98504.00;;;;5094955;28;20481;-76
2022/04/07 03:39:49;;;;;;;3.40;2.70;;;10.40;1.00;10.80;98487.00;;;;5089421;28;20458;-76
2022/04/07 03:42:18;;;;;;;3.40;2.60;;;10.40;1.00;10.80;98495.00;;;;5092557;28;20451;-76
2022/04/07 03:44:46;;;;;;;2.30;2.00;;;10.50;1.00;10.80;98497.00;;;;5093600;28;20453;-76
2022/04/07 03:47:14;;;;;;;2.57;2.10;;;10.50;1.00;10.90;98488.00;;;;5094334;28;21174;-76
2022/04/07 03:49:42;;;;;;;2.50;2.30;;;10.70;1.00;10.90;98484.00;;;;5092878;28;20449;-77
2022/04/07 03:52:11;;;;;;;2.27;2.07;;;10.50;1.00;10.90;98480.00;;;;5092965;28;20450;-76
2022/04/07 03:54:40;;;;;;;2.77;2.30;;;10.60;1.00;10.90;98472.00;;;;5092665;28;21000;-76
2022/04/07 03:57:08;;;;;;;4.10;1.97;;;10.60;1.00;10.90;98472.00;;;;5091610;28;20488;-76
2022/04/07 03:59:38;;;;;;;2.60;1.93;;;10.60;1.00;10.90;98457.00;;;;5093474;28;20464;-77
2022/04/07 04:02:06;;;;;;;3.47;2.30;;;10.60;1.00;10.90;98465.00;;;;5094259;28;20461;-76
2022/04/07 04:04:35;;;;;;;2.57;2.00;;;10.50;1.00;10.90;98460.00;;;;5092277;28;20487;-76
2022/04/07 04:07:04;;;;;;;2.00;1.80;;;10.50;1.00;10.80;98466.00;;;;5094778;28;20478;-76
2022/04/07 04:09:33;;;;;;;2.70;1.93;;;10.50;1.00;10.90;98446.00;;;;5096990;28;21162;-77
2022/04/07 04:12:03;;;;;;;2.60;2.40;;;10.50;1.00;10.90;98451.00;;;;5097096;28;20525;-77
2022/04/07 04:14:31;;;;;;;2.73;2.00;;;10.50;1.00;10.90;98455.00;;;;5096117;28;20460;-77
2022/04/07 04:17:00;;;;;;;2.70;2.00;;;10.60;1.00;11.00;98454.00;;;;5099323;28;20557;-77
2022/04/07 04:19:29;;;;;;;2.30;1.70;;;10.60;1.00;11.00;98447.00;;;;5103984;28;20454;-77
2022/04/07 04:21:57;;;;;;;2.57;1.90;;;10.60;1.00;11.00;98439.00;;;;5103484;28;20454;-77
2022/04/07 04:24:25;;;;;;;2.30;1.57;;;10.60;1.00;11.10;98434.00;;;;5100232;28;20453;-77
2022/04/07 04:26:58;;;;;;;4.10;2.00;;;10.80;1.00;11.10;98439.00;;;;5108196;28;20468;-77
2022/04/07 04:29:28;;;;;;;2.70;2.50;;;10.70;1.00;11.20;98445.00;;;;5106238;28;20917;-77
2022/04/07 04:31:57;;;;;;;2.00;1.73;;;10.80;1.00;11.20;98446.00;;;;5095394;28;20468;-77
2022/04/07 04:34:25;;;;;;;2.73;1.93;;;10.80;1.00;11.20;98434.00;;;;5095143;28;20489;-77
2022/04/07 04:36:53;;;;;;;1.97;1.60;;;10.80;1.00;11.20;98441.00;;;;5097292;28;20477;-77
2022/04/07 04:39:22;;;;;;;2.63;2.03;;;10.80;1.00;11.20;98429.00;;;;5095545;28;20457;-77
2022/04/07 04:41:50;;;;;;;2.10;1.70;;;10.80;1.00;11.20;98425.00;;;;5094327;28;20950;-76
2022/04/07 04:44:18;;;;;;;4.30;1.80;;;10.80;1.00;11.30;98399.00;;;;5094007;28;20465;-77
2022/04/07 04:46:54;;;;;;;2.47;1.83;;;10.90;1.00;11.30;98414.00;;;;5092082;28;21045;-77
2022/04/07 04:49:22;;;;;;;2.40;1.70;;;10.90;1.00;11.30;98410.00;;;;5096753;28;20459;-76
2022/04/07 04:51:50;;;;;;;3.03;1.83;;;11.00;1.00;11.40;98419.00;;;;5092680;28;20473;-77
2022/04/07 04:54:19;;;;;;;4.03;2.37;;;11.00;1.00;11.40;98415.00;;;;5114974;28;20453;-77
2022/04/07 04:56:47;;;;;;;2.60;1.77;;;11.00;1.00;11.40;98399.00;;;;5111787;28;21018;-77
2022/04/07 04:59:16;;;;;;;1.70;1.47;;;11.00;1.00;11.40;98401.00;;;;5108395;28;20946;-77
2022/04/07 05:01:44;;;;;;;2.10;1.73;;;11.10;1.00;11.30;98420.00;;;;5095714;28;20469;-77
2022/04/07 05:04:14;;;;;;;2.13;1.73;;;10.90;1.00;11.20;98395.00;;;;5091294;28;20854;-76
2022/04/07 05:06:42;;;;;;;2.50;2.10;;;10.70;1.00;10.90;98391.00;;;;5086136;28;20517;-77
2022/04/07 05:09:11;;;;;;;5.60;2.53;;;10.50;1.00;10.80;98407.00;;;;5084588;28;20478;-76
2022/04/07 05:11:39;;;;;;;4.60;2.80;;;10.40;1.00;10.70;98404.00;;;;5093831;28;20455;-76
2022/04/07 05:14:08;;;;;;;2.60;2.30;;;10.30;1.00;10.60;98380.00;;;;5098542;28;20449;-77
2022/04/07 05:16:36;;;;;;;4.37;2.70;;;10.20;1.00;10.60;98394.00;;;;5100644;28;20531;-77
2022/04/07 05:19:04;;;;;;;4.47;3.27;;;10.20;1.00;10.60;98394.00;;;;5102280;28;21034;-77
2022/04/07 05:21:34;;;;;;;2.40;2.20;;;10.30;1.00;10.60;98378.00;;;;5098148;28;20446;-77
2022/04/07 05:24:03;;;;;;;3.07;2.13;;;10.20;1.00;10.60;98354.00;;;;5102435;28;20442;-77
2022/04/07 05:26:31;;;;;;;4.43;2.50;;;10.30;1.00;10.60;98374.00;;;;5097685;28;20476;-76
2022/04/07 05:28:59;;;;;;;2.00;1.50;;;10.20;1.00;10.70;98362.00;;;;5098049;28;20531;-77
2022/04/07 05:31:28;;;;;;;2.97;2.30;;;10.30;1.00;10.70;98370.00;;;;5101007;28;20455;-77
2022/04/07 05:33:56;;;;;;;2.23;1.90;;;10.30;1.00;10.80;98373.00;;;;5100082;28;20986;-76
2022/04/07 05:36:26;;;;;;;1.97;1.50;;;10.30;1.00;10.80;98360.00;;;;5098932;28;20988;-77
2022/04/07 05:38:55;;;;;;;1.83;1.40;;;10.50;1.00;10.90;98380.00;;;;5098261;28;20517;-76
2022/04/07 05:41:24;;;;;;;1.77;1.23;;;10.50;1.00;11.00;98350.00;;;;5101230;28;20478;-77
2022/04/07 05:43:52;;;;;;;1.73;1.47;;;10.60;1.00;11.00;98353.00;;;;5107105;28;20450;-77
2022/04/07 05:46:20;;;;;;;2.40;1.00;;;10.80;1.00;11.10;98353.00;;;;5106366;28;20479;-77
2022/04/07 05:48:49;;;;;;;2.20;1.23;;;10.80;1.00;11.20;98357.00;;;;5100869;28;20490;-77
2022/04/07 05:51:17;;;;;;;2.30;1.40;;;10.80;1.00;11.20;98328.00;;;;5098968;28;20463;-77
2022/04/07 05:53:46;;;;;;;2.23;1.17;;;10.90;1.00;11.40;98320.00;;;;5111415;28;20450;-77
2022/04/07 05:56:15;;;;;;;1.90;1.00;;;11.00;1.00;11.50;98315.00;;;;5111661;28;20480;-76
2022/04/07 05:58:44;;;;;;;1.40;1.10;;;11.10;1.00;11.70;98290.00;;;;5112053;28;20464;-77
2022/04/07 06:01:12;;;;;;;3.10;0.87;;;11.20;1.00;11.80;98303.00;;;;5109167;28;20558;-78
2022/04/07 06:03:41;;;;;;;1.87;1.20;;;11.50;1.00;11.80;98301.00;;;;5091831;28;20446;-77
2022/04/07 06:06:09;;;;;;;2.53;0.93;;;11.40;1.00;11.70;98301.00;;;;5102277;28;20872;-77
2022/04/07 06:08:38;;;;;;;2.20;0.83;;;11.40;1.00;11.80;98293.00;;;;5107318;28;20482;-77
2022/04/07 06:11:06;;;;;;;1.63;0.90;;;11.40;1.00;11.80;98285.00;;;;5108018;28;20478;-77
2022/04/07 06:13:38;;;;;;;1.20;0.77;;;11.40;1.00;11.80;98292.00;;;;5110104;28;20488;-77
2022/04/07 06:16:07;;;;;;;1.13;0.73;;;11.40;1.00;11.80;98283.00;;;;5114380;28;20445;-77
2022/04/07 06:18:35;;;;;;;2.17;1.17;;;11.40;1.00;11.80;98274.00;;;;5113005;28;20450;-76
2022/04/07 06:21:03;;;;;;;1.90;0.77;;;11.40;1.00;11.80;98255.00;;;;5091266;28;20905;-77
2022/04/07 06:23:32;;;;;;;2.63;1.07;;;11.40;1.00;11.70;98261.00;;;;5112328;28;20451;-77
2022/04/07 06:26:00;;;;;;;4.03;1.00;;;11.40;1.00;11.60;98241.00;;;;5118549;28;20446;-77
2022/04/07 06:28:29;;;;;;;3.30;1.20;;;11.20;1.00;11.50;98273.00;;;;5113408;28;20474;-78
2022/04/07 06:30:59;;;;;;;1.30;1.10;;;11.10;1.00;11.50;98243.00;;;;5106749;28;20958;-78
2022/04/07 06:33:27;;;;;;;2.20;1.17;;;11.10;1.00;11.50;98251.00;;;;5101945;28;20454;-77
2022/04/07 06:35:55;;;;;;;1.30;1.10;;;11.10;1.00;11.50;98246.00;;;;5105828;28;21055;-78
2022/04/07 06:38:24;;;;;;;1.40;0.90;;;11.10;1.00;11.50;98237.00;;;;5113167;28;20516;-78
2022/04/07 06:40:52;;;;;;;1.63;1.00;;;11.10;1.00;11.60;98219.00;;;;5099437;28;20449;-77
2022/04/07 06:43:22;;;;;;;2.67;0.90;;;11.10;1.00;11.70;98226.00;;;;5111612;28;20446;-77
2022/04/07 06:45:50;;;;;;;1.90;1.10;;;11.30;1.00;11.70;98215.00;;;;5108951;28;20442;-76
2022/04/07 06:48:20;;;;;;;2.23;1.20;;;11.30;1.00;11.70;98195.00;;;;5103158;28;20473;-76
2022/04/07 06:50:48;;;;;;;2.47;1.10;;;11.30;1.00;11.90;98194.00;;;;5101225;28;20471;-77
2022/04/07 06:53:17;;;;;;;2.40;1.30;;;11.40;1.00;11.90;98190.00;;;;5120903;27;20797;-77
2022/04/07 06:55:46;;;;;;;1.57;0.83;;;11.50;1.00;11.90;98191.00;;;;5101705;28;20456;-77
2022/04/07 06:58:14;;;;;;;1.70;0.90;;;11.40;1.00;11.80;98178.00;;;;5102122;28;20477;-77
2022/04/07 07:00:45;;;;;;;1.73;0.90;;;11.40;1.00;11.70;98180.00;;;;5119460;28;20906;-78
2022/04/07 07:03:15;;;;;;;2.90;1.00;;;11.40;1.00;11.60;98171.00;;;;5125024;28;20863;-78
2022/04/07 07:05:45;;;;;;;1.80;1.00;;;11.20;1.00;11.30;98185.00;;;;5113628;28;20464;-77
2022/04/07 07:08:15;;;;;;;2.03;1.23;;;10.90;1.00;11.20;98184.00;;;;5103706;28;20481;-77
2022/04/07 07:10:45;;;;;;;3.80;1.50;;;10.70;1.00;10.90;98166.00;;;;5099682;28;20450;-77
2022/04/07 07:13:16;;;;;;;3.73;1.33;;;10.50;1.00;10.90;98159.00;;;;5104558;28;20514;-77
2022/04/07 07:15:52;;;;;;;3.43;1.20;;;10.50;1.00;10.90;98170.00;;;;5107911;28;20472;-77
2022/04/07 07:18:21;;;;;;;2.90;0.90;;;10.50;1.00;10.90;98147.00;;;;5101693;28;20481;-77
2022/04/07 07:20:51;;;;;;;1.27;0.80;;;10.50;1.00;10.90;98145.00;;;;5099390;28;20518;-77
2022/04/07 07:23:20;;;;;;;2.90;1.27;;;10.50;1.00;11.00;98136.00;;;;5100763;28;20533;-78
2022/04/07 07:25:48;;;;;;;2.90;1.10;;;10.60;1.00;11.00;98144.00;;;;5099155;28;20994;-77
2022/04/07 07:28:17;;;;;;;1.43;1.20;;;10.70;1.00;11.10;98118.00;;;;5095191;28;20481;-77
2022/04/07 07:30:45;;;;;;;2.63;1.10;;;10.90;1.00;11.20;98124.00;;;;5094353;28;20449;-77
2022/04/07 07:33:13;;;;;;;2.50;1.10;;;10.80;1.00;11.30;98116.00;;;;5101042;28;21030;-77
2022/04/07 07:35:43;;;;;;;2.03;0.90;;;10.80;1.00;11.30;98134.00;;;;5096323;28;20971;-78
2022/04/07 07:38:13;;;;;;;2.33;0.90;;;10.90;1.00;11.30;98111.00;;;;5098464;28;20477;-78
2022/04/07 07:40:42;;;;;;;2.87;1.00;;;10.90;1.00;11.30;98107.00;;;;5100244;28;20430;-76
2022/04/07 07:43:10;;;;;;;1.20;0.63;;;10.90;1.00;11.30;98104.00;;;;5096362;28;20473;-76
2022/04/07 07:45:38;;;;;;;1.90;1.20;;;10.90;1.00;11.30;98097.00;;;;5095190;28;20456;-76
2022/04/07 07:48:27;;;;;;;2.17;1.60;;;10.80;1.00;11.20;98109.00;;;;5096748;28;20506;-78
2022/04/07 07:50:57;;;;;;;1.70;0.80;;;10.90;1.00;11.20;98113.00;;;;5097723;28;20505;-78
2022/04/07 07:53:28;;;;;;;1.93;1.50;;;10.80;1.00;11.20;98089.00;;;;5096510;28;20454;-77
2022/04/07 07:55:56;;;;;;;1.20;0.80;;;10.70;1.00;11.20;98083.00;;;;5098717;28;20445;-78
2022/04/07 07:58:26;;;;;;;2.33;1.43;;;10.80;1.00;11.20;98085.00;;;;5098859;28;20534;-78
2022/04/07 08:00:56;;;;;;;2.90;1.50;;;10.90;1.00;11.20;98072.00;;;;5098423;28;20445;-78
2022/04/07 08:03:24;;;;;;;2.13;1.07;;;10.90;1.00;11.10;98069.00;;;;5099020;28;20453;-77
2022/04/07 08:05:53;;;;;;;1.30;1.10;;;10.90;1.00;11.00;98064.00;;;;5096210;28;20445;-77
2022/04/07 08:08:21;;;;;;;1.97;0.87;;;10.60;1.00;10.90;98040.00;;;;5114067;28;20571;-77
2022/04/07 08:10:51;;;;;;;1.40;0.63;;;10.50;1.00;10.90;98057.00;;;;5106220;28;20614;-77
2022/04/07 08:13:19;;;;;;;1.40;0.93;;;10.50;1.00;10.90;98076.00;;;;5093930;28;20461;-77
2022/04/07 08:15:47;;;;;;;1.47;0.80;;;10.50;1.00;10.90;98055.00;;;;5085520;28;20467;-78
2022/04/07 08:18:16;;;;;;;2.00;0.60;;;10.50;1.00;10.90;98029.00;;;;5095740;28;20547;-78
2022/04/07 08:20:44;;;;;;;1.20;0.60;;;10.50;1.00;11.00;98049.00;;;;5097053;28;20463;-78
2022/04/07 08:23:13;;;;;;;1.20;0.70;;;10.50;1.00;11.00;98013.00;;;;5110263;28;20507;-77
2022/04/07 08:25:41;;;;;;;1.50;0.90;;;10.60;1.00;11.00;98026.00;;;;5097090;28;20548;-77
2022/04/07 08:28:11;;;;;;;3.20;0.97;;;10.60;1.00;11.10;98009.00;;;;5094507;28;20481;-78
2022/04/07 08:30:40;;;;;;;1.60;0.70;;;10.70;1.00;11.20;98018.00;;;;5091555;28;20486;-78
2022/04/07 08:33:08;;;;;;;4.43;1.40;;;10.70;1.00;11.20;98016.00;;;;5090207;28;20449;-76
2022/04/07 08:35:36;;;;;;;2.23;1.00;;;10.80;1.00;11.30;98013.00;;;;5089471;28;20454;-77
2022/04/07 08:38:05;;;;;;;2.37;1.10;;;10.90;1.00;11.30;98009.00;;;;5092240;28;20569;-77
2022/04/07 08:40:37;;;;;;;1.70;1.00;;;10.90;1.00;11.30;97982.00;;;;5093041;28;20457;-78
2022/04/07 08:43:07;;;;;;;2.67;1.03;;;10.90;1.00;11.20;97999.00;;;;5107763;28;20457;-78
2022/04/07 08:45:37;;;;;;;1.20;0.70;;;10.90;1.00;11.20;98011.00;;;;5099100;28;20453;-77
2022/04/07 08:48:09;;;;;;;1.40;1.00;;;10.80;1.00;11.20;98001.00;;;;5097763;28;20591;-79
2022/04/07 08:50:40;;;;;;;2.40;1.30;;;10.90;1.00;11.40;98006.00;;;;5098605;28;21227;-77
2022/04/07 08:53:10;;;;;;;1.33;0.90;;;11.00;1.00;11.30;97996.00;;;;5095532;28;20460;-78
2022/04/07 08:55:38;;;;;;;1.50;0.90;;;11.20;1.00;11.30;97998.00;;;;5099580;28;20465;-78
2022/04/07 08:58:07;;;;;;;2.57;1.10;;;11.10;1.00;11.20;98004.00;;;;5101219;28;20483;-78
2022/04/07 09:00:37;;;;;;;2.87;1.10;;;10.90;1.00;11.30;97983.00;;;;5102219;28;20465;-78
2022/04/07 09:03:05;;;;;;;2.87;1.10;;;10.90;1.00;11.40;97980.00;;;;5111211;28;20446;-77
2022/04/07 09:05:54;;;;;;;2.00;0.87;;;11.00;1.00;11.40;97979.00;;;;5103245;28;20445;-78
2022/04/07 09:08:29;;;;;;;1.70;0.90;;;11.10;1.00;11.30;97979.00;;;;5105372;28;20488;-78
2022/04/07 09:11:00;;;;;;;1.97;1.27;;;11.00;1.00;11.40;97966.00;;;;5106091;28;20930;-78
2022/04/07 09:13:34;;;;;;;1.27;0.80;;;10.90;1.00;11.30;97939.00;;;;5102513;28;20434;-78
2022/04/07 09:16:12;;;;;;;1.80;0.80;;;11.00;1.00;11.40;97946.00;;;;5105353;28;20454;-79
2022/04/07 09:18:42;;;;;;;1.10;0.57;;;11.00;1.00;11.40;97949.00;;;;5099938;28;20500;-78
2022/04/07 09:21:19;;;;;;;1.30;0.77;;;11.30;1.00;11.40;97929.00;;;;5102294;28;21006;-76
2022/04/07 09:23:50;;;;;;;1.50;0.80;;;11.10;1.00;11.40;97929.00;;;;5104326;27;20483;-77
2022/04/07 09:26:18;;;;;;;1.47;0.80;;;11.10;1.00;11.50;97931.00;;;;5100241;28;20489;-78
2022/04/07 09:28:50;;;;;;;1.67;0.90;;;11.20;1.00;11.50;97934.00;;;;5101430;28;20450;-78
2022/04/07 09:31:22;;;;;;;1.30;0.80;;;11.20;1.00;11.50;97921.00;;;;5086434;28;20554;-78
2022/04/07 09:33:54;;;;;;;1.00;0.60;;;11.30;1.00;11.60;97920.00;;;;5103942;28;20437;-78
2022/04/07 09:36:24;;;;;;;1.20;0.63;;;11.30;1.00;11.70;97896.00;;;;5100828;28;20959;-77
2022/04/07 09:38:55;;;;;;;1.23;0.60;;;11.40;1.00;11.70;97916.00;;;;5097526;28;20472;-79
2022/04/07 09:41:24;;;;;;;1.20;0.60;;;11.50;1.00;11.80;97884.00;;;;5099392;28;20461;-78
2022/04/07 09:43:58;;;;;;;1.53;0.50;;;11.50;1.00;11.90;97886.00;;;;5097179;28;20521;-77
2022/04/07 09:46:34;;;;;;;1.57;0.60;;;11.60;1.00;12.00;97882.00;;;;5097433;28;20450;-81
2022/04/07 09:49:07;;;;;;;1.50;0.80;;;11.70;1.00;12.10;97878.00;;;;5093332;28;20425;-77
2022/04/07 09:51:40;;;;;;;2.37;0.80;;;11.80;1.00;12.10;97886.00;;;;5095872;28;20187;-79
2022/04/07 09:54:13;;;;;;;1.20;0.60;;;11.80;1.00;12.10;97874.00;;;;5097544;28;20449;-79
2022/04/07 09:56:42;;;;;;;1.97;0.70;;;11.80;1.00;12.10;97884.00;;;;5098216;28;20849;-78
2022/04/07 09:59:14;;;;;;;1.80;0.70;;;12.10;1.00;12.10;97866.00;;;;5097015;28;20485;-76
2022/04/07 10:01:44;;;;;;;1.57;0.60;;;11.80;1.00;12.10;97872.00;;;;5098093;28;20520;-78
2022/04/07 10:04:12;;;;;;;1.20;0.63;;;11.80;1.00;12.10;97862.00;;;;5102118;28;20454;-79
2022/04/07 10:06:41;;;;;;;0.90;0.50;;;11.80;1.00;12.20;97857.00;;;;5112400;28;20540;-79
2022/04/07 10:09:11;;;;;;;1.57;0.67;;;11.90;1.00;12.20;97841.00;;;;5107915;28;20475;-78
2022/04/07 10:11:40;;;;;;;2.90;0.80;;;11.80;1.00;12.20;97854.00;;;;5104494;28;20464;-78
2022/04/07 10:14:09;;;;;;;1.93;0.60;;;11.90;1.00;12.10;97839.00;;;;5113451;28;20199;-78
2022/04/07 10:16:47;;;;;;;1.70;0.70;;;11.80;1.00;12.00;97825.00;;;;5103025;28;20469;-77
2022/04/07 10:19:23;;;;;;;1.30;0.70;;;11.70;1.00;11.90;97837.00;;;;5106222;28;20460;-77
2022/04/07 10:22:17;;;;;;;2.30;0.90;;;11.70;1.00;12.00;97830.00;;;;5104849;28;20455;-77
2022/04/07 10:24:48;;;;;;;1.42;0.90;;;11.80;1.00;12.10;97837.00;;;;5113293;27;20475;-78
2022/04/07 10:27:37;;;;;;;2.70;1.00;;;11.90;1.00;12.20;97838.00;;;;5091579;28;20425;-78
2022/04/07 10:30:10;;;;;;;1.80;0.90;;;11.90;1.00;12.30;97830.00;;;;5088765;28;20431;-79
2022/04/07 10:32:42;;;;;;;2.15;1.00;;;12.20;1.00;12.40;97809.00;;;;5090047;28;21579;-78
2022/04/07 10:35:29;;;;;;;1.40;0.90;;;12.30;1.00;12.50;97802.00;;;;5090136;28;20417;-77
2022/04/07 10:37:58;;;;;;;1.70;1.05;;;12.30;1.00;12.60;97788.00;;;;5089136;28;20426;-78
2022/04/07 10:40:44;;;;;;;2.42;0.90;;;12.60;1.00;12.70;97768.00;;;;5090946;28;20422;-79
2022/04/07 10:43:20;;;;;;;2.60;1.00;;;12.50;1.00;12.70;97753.00;;;;5099587;28;20407;-78
2022/04/07 10:45:52;;;;;;;2.22;0.85;;;12.50;1.00;12.70;97765.00;;;;5098461;28;20526;-78
2022/04/07 10:48:28;;;;;;;1.67;0.80;;;12.50;1.00;12.70;97754.00;;;;5093023;28;20414;-78
2022/04/07 10:50:59;;;;;;;2.20;1.00;;;12.60;1.00;12.70;97759.00;;;;5084065;28;20909;-79
2022/04/07 10:53:31;;;;;;;1.88;0.73;;;12.50;1.00;12.70;97707.00;;;;5087391;28;20412;-77
2022/04/07 10:56:12;;;;;;;1.80;0.80;;;12.40;1.00;12.70;97747.00;;;;5096716;28;20406;-79
2022/04/07 10:58:52;;;;;;;1.37;0.70;;;12.50;1.00;12.60;97749.00;;;;5110397;28;20211;-79
2022/04/07 11:02:00;;;;;;;3.73;0.97;;;12.40;1.00;12.70;97736.00;;;;5095294;28;20514;-78
2022/04/07 11:04:42;;;;;;;2.60;0.87;;;12.30;1.00;12.70;97714.00;;;;5091872;28;20507;-77
2022/04/07 11:07:22;;;;;;;1.27;0.80;;;12.30;1.00;12.70;97718.00;;;;5086848;28;20474;-78
2022/04/07 11:10:11;;;;;;;1.20;0.63;;;12.30;1.00;12.80;97703.00;;;;5086456;28;20558;-77
2022/04/07 11:12:44;;;;;;;1.87;0.60;;;12.40;1.00;12.90;97688.00;;;;5092713;28;20537;-76
2022/04/07 11:15:30;;;;;;;1.50;0.60;;;12.40;1.00;12.90;97696.00;;;;5078225;28;20435;-78